sensor_id;sensor_type;location;lat;lon;timestamp;pressure;altitude;pressure_sealevel;temperature;humidity
8366;BME280;4220;42.502;24.188;2023-04-01T00:01:55;94480.13;;;8.73;87.59
8366;BME280;4220;42.502;24.188;2023-04-01T00:04:22;94470.25;;;8.69;88.21
8366;BME280;4220;42.502;24.188;2023-04-01T00:06:49;94455.25;;;8.63;87.50
8366;BME280;4220;42.502;24.188;2023-04-01T00:09:18;94463.66;;;8.60;88.83
8366;BME280;4220;42.502;24.188;2023-04-01T00:11:45;94461.72;;;8.67;88.91
8366;BME280;4220;42.502;24.188;2023-04-01T00:14:12;94446.75;;;8.61;89.49
8366;BME280;4220;42.502;24.188;2023-04-01T00:16:39;94448.72;;;8.65;89.71
8366;BME280;4220;42.502;24.188;2023-04-01T00:19:06;94456.75;;;8.59;90.98
8366;BME280;4220;42.502;24.188;2023-04-01T00:21:33;94458.59;;;8.58;93.14
8366;BME280;4220;42.502;24.188;2023-04-01T00:24:00;94445.03;;;8.54;94.19
8366;BME280;4220;42.502;24.188;2023-04-01T00:26:28;94439.03;;;8.47;95.18
8366;BME280;4220;42.502;24.188;2023-04-01T00:28:55;94447.75;;;8.48;96.31
8366;BME280;4220;42.502;24.188;2023-04-01T00:31:22;94443.16;;;8.55;96.57
8366;BME280;4220;42.502;24.188;2023-04-01T00:33:48;94444.25;;;8.66;95.65
8366;BME280;4220;42.502;24.188;2023-04-01T00:36:17;94427.50;;;8.72;94.58
8366;BME280;4220;42.502;24.188;2023-04-01T00:38:45;94443.53;;;8.88;93.64
8366;BME280;4220;42.502;24.188;2023-04-01T00:41:13;94427.03;;;8.75;94.05
8366;BME280;4220;42.502;24.188;2023-04-01T00:43:43;94440.59;;;8.67;94.51
8366;BME280;4220;42.502;24.188;2023-04-01T00:46:10;94446.44;;;8.69;93.96
8366;BME280;4220;42.502;24.188;2023-04-01T00:48:39;94439.06;;;8.59;94.88
8366;BME280;4220;42.502;24.188;2023-04-01T00:51:10;94431.59;;;8.68;94.54
8366;BME280;4220;42.502;24.188;2023-04-01T00:53:41;94428.75;;;8.69;94.29
8366;BME280;4220;42.502;24.188;2023-04-01T00:56:12;94425.44;;;8.74;94.02
8366;BME280;4220;42.502;24.188;2023-04-01T00:58:46;94424.38;;;8.75;93.84
8366;BME280;4220;42.502;24.188;2023-04-01T01:01:14;94423.63;;;8.86;92.89
8366;BME280;4220;42.502;24.188;2023-04-01T01:03:41;94415.69;;;8.97;91.87
8366;BME280;4220;42.502;24.188;2023-04-01T01:06:12;94416.75;;;9.08;90.52
8366;BME280;4220;42.502;24.188;2023-04-01T01:09:03;94421.03;;;9.09;89.86
8366;BME280;4220;42.502;24.188;2023-04-01T01:11:37;94417.91;;;9.12;89.94
8366;BME280;4220;42.502;24.188;2023-04-01T01:14:17;94405.25;;;9.02;88.75
8366;BME280;4220;42.502;24.188;2023-04-01T01:16:52;94422.38;;;9.00;89.37
8366;BME280;4220;42.502;24.188;2023-04-01T01:19:33;94406.88;;;8.92;89.61
8366;BME280;4220;42.502;24.188;2023-04-01T01:22:22;94411.22;;;9.09;88.83
8366;BME280;4220;42.502;24.188;2023-04-01T01:25:18;94399.94;;;8.91;89.33
8366;BME280;4220;42.502;24.188;2023-04-01T01:27:58;94400.50;;;8.81;91.23
8366;BME280;4220;42.502;24.188;2023-04-01T01:30:48;94395.81;;;8.95;90.50
8366;BME280;4220;42.502;24.188;2023-04-01T01:36:18;94395.69;;;8.90;90.43
8366;BME280;4220;42.502;24.188;2023-04-01T01:38:48;94403.41;;;9.03;89.84
8366;BME280;4220;42.502;24.188;2023-04-01T01:41:18;94399.28;;;9.07;90.14
8366;BME280;4220;42.502;24.188;2023-04-01T01:43:50;94397.69;;;9.06;90.96
8366;BME280;4220;42.502;24.188;2023-04-01T01:46:21;94387.88;;;8.95;91.38
8366;BME280;4220;42.502;24.188;2023-04-01T01:48:49;94397.00;;;9.10;91.29
8366;BME280;4220;42.502;24.188;2023-04-01T01:51:20;94371.56;;;8.98;91.35
8366;BME280;4220;42.502;24.188;2023-04-01T01:53:48;94375.81;;;9.10;91.55
8366;BME280;4220;42.502;24.188;2023-04-01T01:56:18;94365.81;;;9.01;92.46
8366;BME280;4220;42.502;24.188;2023-04-01T01:58:49;94381.00;;;9.05;92.63
8366;BME280;4220;42.502;24.188;2023-04-01T02:01:21;94357.88;;;9.01;92.53
8366;BME280;4220;42.502;24.188;2023-04-01T02:03:50;94374.31;;;9.03;93.59
8366;BME280;4220;42.502;24.188;2023-04-01T02:06:21;94370.38;;;8.82;95.27
8366;BME280;4220;42.502;24.188;2023-04-01T02:08:50;94368.34;;;8.96;94.57
8366;BME280;4220;42.502;24.188;2023-04-01T02:11:23;94379.25;;;8.99;93.91
8366;BME280;4220;42.502;24.188;2023-04-01T02:13:54;94373.53;;;8.49;97.71
8366;BME280;4220;42.502;24.188;2023-04-01T02:16:26;94377.34;;;8.53;99.50
8366;BME280;4220;42.502;24.188;2023-04-01T02:18:56;94331.59;;;8.41;99.29
8366;BME280;4220;42.502;24.188;2023-04-01T02:21:27;94371.63;;;8.80;98.05
8366;BME280;4220;42.502;24.188;2023-04-01T02:23:58;94361.06;;;8.80;96.42
8366;BME280;4220;42.502;24.188;2023-04-01T02:26:25;94356.38;;;8.82;96.73
8366;BME280;4220;42.502;24.188;2023-04-01T02:28:53;94362.00;;;8.97;96.03
8366;BME280;4220;42.502;24.188;2023-04-01T02:31:21;94353.41;;;9.01;94.73
8366;BME280;4220;42.502;24.188;2023-04-01T02:33:50;94365.00;;;9.12;93.88
8366;BME280;4220;42.502;24.188;2023-04-01T02:36:17;94352.25;;;8.97;93.89
8366;BME280;4220;42.502;24.188;2023-04-01T02:38:46;94347.38;;;8.71;96.30
8366;BME280;4220;42.502;24.188;2023-04-01T02:41:14;94343.38;;;8.80;97.24
8366;BME280;4220;42.502;24.188;2023-04-01T02:43:41;94332.47;;;8.77;96.78
8366;BME280;4220;42.502;24.188;2023-04-01T02:46:08;94342.00;;;8.78;98.07
8366;BME280;4220;42.502;24.188;2023-04-01T02:48:35;94338.09;;;8.80;97.95
8366;BME280;4220;42.502;24.188;2023-04-01T02:51:01;94329.47;;;8.85;97.86
8366;BME280;4220;42.502;24.188;2023-04-01T02:53:29;94327.63;;;8.85;97.56
8366;BME280;4220;42.502;24.188;2023-04-01T02:55:57;94331.41;;;8.78;97.91
8366;BME280;4220;42.502;24.188;2023-04-01T02:58:24;94334.63;;;8.68;98.06
8366;BME280;4220;42.502;24.188;2023-04-01T03:00:51;94330.34;;;8.55;100.00
8366;BME280;4220;42.502;24.188;2023-04-01T03:03:21;94315.44;;;8.61;100.00
8366;BME280;4220;42.502;24.188;2023-04-01T03:05:47;94324.41;;;8.72;99.80
8366;BME280;4220;42.502;24.188;2023-04-01T03:08:14;94326.50;;;8.70;100.00
8366;BME280;4220;42.502;24.188;2023-04-01T03:10:41;94326.13;;;8.78;99.31
8366;BME280;4220;42.502;24.188;2023-04-01T03:13:09;94326.81;;;8.62;100.00
8366;BME280;4220;42.502;24.188;2023-04-01T03:15:36;94330.25;;;8.62;100.00
8366;BME280;4220;42.502;24.188;2023-04-01T03:18:03;94313.47;;;8.57;100.00
8366;BME280;4220;42.502;24.188;2023-04-01T03:20:30;94325.88;;;8.68;100.00
8366;BME280;4220;42.502;24.188;2023-04-01T03:22:57;94333.47;;;8.52;100.00
8366;BME280;4220;42.502;24.188;2023-04-01T03:25:24;94327.13;;;8.42;100.00
8366;BME280;4220;42.502;24.188;2023-04-01T03:27:52;94335.38;;;8.45;100.00
8366;BME280;4220;42.502;24.188;2023-04-01T03:30:20;94331.00;;;8.39;100.00
8366;BME280;4220;42.502;24.188;2023-04-01T03:32:47;94302.66;;;8.17;100.00
8366;BME280;4220;42.502;24.188;2023-04-01T03:35:14;94322.66;;;8.42;100.00
8366;BME280;4220;42.502;24.188;2023-04-01T03:37:41;94328.38;;;8.51;100.00
8366;BME280;4220;42.502;24.188;2023-04-01T03:40:09;94333.34;;;8.59;100.00
8366;BME280;4220;42.502;24.188;2023-04-01T03:42:36;94330.81;;;8.52;100.00
8366;BME280;4220;42.502;24.188;2023-04-01T03:45:04;94339.38;;;8.36;100.00
8366;BME280;4220;42.502;24.188;2023-04-01T03:47:32;94335.47;;;8.27;100.00
8366;BME280;4220;42.502;24.188;2023-04-01T03:49:59;94332.28;;;8.37;100.00
8366;BME280;4220;42.502;24.188;2023-04-01T03:52:26;94336.88;;;8.41;100.00
8366;BME280;4220;42.502;24.188;2023-04-01T03:54:53;94340.00;;;8.50;100.00
8366;BME280;4220;42.502;24.188;2023-04-01T03:57:20;94344.25;;;8.51;100.00
8366;BME280;4220;42.502;24.188;2023-04-01T03:59:46;94338.63;;;8.47;100.00
8366;BME280;4220;42.502;24.188;2023-04-01T04:02:13;94333.13;;;8.61;100.00
8366;BME280;4220;42.502;24.188;2023-04-01T04:04:42;94329.44;;;8.50;100.00
8366;BME280;4220;42.502;24.188;2023-04-01T04:07:08;94340.41;;;8.35;100.00
8366;BME280;4220;42.502;24.188;2023-04-01T04:09:35;94330.31;;;8.14;100.00
8366;BME280;4220;42.502;24.188;2023-04-01T04:12:02;94323.13;;;8.21;100.00
8366;BME280;4220;42.502;24.188;2023-04-01T04:14:30;94321.94;;;8.06;100.00
8366;BME280;4220;42.502;24.188;2023-04-01T04:16:58;94322.84;;;7.81;100.00
8366;BME280;4220;42.502;24.188;2023-04-01T04:19:39;94322.28;;;8.09;100.00
8366;BME280;4220;42.502;24.188;2023-04-01T04:22:07;94325.91;;;8.26;100.00
8366;BME280;4220;42.502;24.188;2023-04-01T04:24:34;94325.31;;;8.24;100.00
8366;BME280;4220;42.502;24.188;2023-04-01T04:27:02;94286.00;;;8.16;100.00
8366;BME280;4220;42.502;24.188;2023-04-01T04:29:29;94295.28;;;8.48;100.00
8366;BME280;4220;42.502;24.188;2023-04-01T04:31:56;94304.41;;;8.64;100.00
8366;BME280;4220;42.502;24.188;2023-04-01T04:34:23;94309.44;;;8.54;100.00
8366;BME280;4220;42.502;24.188;2023-04-01T04:36:49;94309.75;;;8.34;100.00
8366;BME280;4220;42.502;24.188;2023-04-01T04:39:18;94308.59;;;8.30;100.00
8366;BME280;4220;42.502;24.188;2023-04-01T04:41:45;94309.31;;;8.37;100.00
8366;BME280;4220;42.502;24.188;2023-04-01T04:44:11;94288.41;;;8.47;100.00
8366;BME280;4220;42.502;24.188;2023-04-01T04:46:38;94283.16;;;8.71;100.00
8366;BME280;4220;42.502;24.188;2023-04-01T04:49:06;94274.44;;;8.82;100.00
8366;BME280;4220;42.502;24.188;2023-04-01T04:51:33;94275.34;;;8.99;100.00
8366;BME280;4220;42.502;24.188;2023-04-01T04:54:01;94288.31;;;9.00;100.00
8366;BME280;4220;42.502;24.188;2023-04-01T04:56:29;94291.53;;;8.91;100.00
8366;BME280;4220;42.502;24.188;2023-04-01T04:58:56;94281.09;;;8.96;100.00
8366;BME280;4220;42.502;24.188;2023-04-01T05:01:23;94287.19;;;8.96;100.00
8366;BME280;4220;42.502;24.188;2023-04-01T05:03:50;94291.22;;;8.99;100.00
8366;BME280;4220;42.502;24.188;2023-04-01T05:06:18;94279.00;;;8.98;100.00
8366;BME280;4220;42.502;24.188;2023-04-01T05:08:45;94269.56;;;9.02;100.00
8366;BME280;4220;42.502;24.188;2023-04-01T05:11:14;94270.16;;;9.04;100.00
8366;BME280;4220;42.502;24.188;2023-04-01T05:13:43;94225.09;;;8.87;100.00
8366;BME280;4220;42.502;24.188;2023-04-01T05:16:12;94261.03;;;9.23;100.00
8366;BME280;4220;42.502;24.188;2023-04-01T05:18:39;94234.25;;;9.19;100.00
8366;BME280;4220;42.502;24.188;2023-04-01T05:21:07;94235.94;;;9.37;100.00
8366;BME280;4220;42.502;24.188;2023-04-01T05:23:34;94241.53;;;9.52;100.00
8366;BME280;4220;42.502;24.188;2023-04-01T05:26:03;94233.78;;;9.62;100.00
8366;BME280;4220;42.502;24.188;2023-04-01T05:28:30;94241.25;;;9.65;98.86
8366;BME280;4220;42.502;24.188;2023-04-01T05:31:00;94218.00;;;9.67;99.11
8366;BME280;4220;42.502;24.188;2023-04-01T05:33:27;94211.25;;;9.76;99.14
8366;BME280;4220;42.502;24.188;2023-04-01T05:35:54;94206.16;;;9.86;97.99
8366;BME280;4220;42.502;24.188;2023-04-01T05:38:21;94197.66;;;9.84;97.23
8366;BME280;4220;42.502;24.188;2023-04-01T05:40:48;94192.72;;;9.76;98.02
8366;BME280;4220;42.502;24.188;2023-04-01T05:43:14;94179.84;;;9.80;98.41
8366;BME280;4220;42.502;24.188;2023-04-01T05:45:41;94190.34;;;9.92;97.23
8366;BME280;4220;42.502;24.188;2023-04-01T05:48:09;94182.06;;;9.71;98.59
8366;BME280;4220;42.502;24.188;2023-04-01T05:50:36;94192.56;;;9.38;100.00
8366;BME280;4220;42.502;24.188;2023-04-01T05:53:03;94188.69;;;9.17;100.00
8366;BME280;4220;42.502;24.188;2023-04-01T05:55:30;94184.69;;;9.15;100.00
8366;BME280;4220;42.502;24.188;2023-04-01T05:57:57;94178.56;;;9.26;100.00
8366;BME280;4220;42.502;24.188;2023-04-01T06:00:24;94177.44;;;9.50;100.00
8366;BME280;4220;42.502;24.188;2023-04-01T06:02:51;94190.78;;;9.55;100.00
8366;BME280;4220;42.502;24.188;2023-04-01T06:05:21;94190.38;;;9.63;100.00
8366;BME280;4220;42.502;24.188;2023-04-01T06:07:49;94194.59;;;9.93;100.00
8366;BME280;4220;42.502;24.188;2023-04-01T06:10:19;94195.06;;;10.18;100.00
8366;BME280;4220;42.502;24.188;2023-04-01T06:12:55;94155.56;;;10.16;100.00
8366;BME280;4220;42.502;24.188;2023-04-01T06:15:35;94200.19;;;10.58;98.48
8366;BME280;4220;42.502;24.188;2023-04-01T06:21:29;94176.88;;;10.60;95.03
8366;BME280;4220;42.502;24.188;2023-04-01T06:24:11;94231.53;;;10.99;94.71
8366;BME280;4220;42.502;24.188;2023-04-01T06:26:49;94220.34;;;11.13;91.28
8366;BME280;4220;42.502;24.188;2023-04-01T06:32:31;94233.13;;;11.38;90.72
8366;BME280;4220;42.502;24.188;2023-04-01T06:35:19;94224.66;;;11.63;88.38
8366;BME280;4220;42.502;24.188;2023-04-01T06:38:12;94211.59;;;11.78;86.00
8366;BME280;4220;42.502;24.188;2023-04-01T06:41:08;94196.78;;;11.87;83.30
8366;BME280;4220;42.502;24.188;2023-04-01T06:43:49;94198.22;;;12.26;79.95
8366;BME280;4220;42.502;24.188;2023-04-01T06:46:26;94192.25;;;12.46;77.11
8366;BME280;4220;42.502;24.188;2023-04-01T06:49:10;94190.59;;;12.72;74.38
8366;BME280;4220;42.502;24.188;2023-04-01T06:51:43;94188.41;;;13.05;72.93
8366;BME280;4220;42.502;24.188;2023-04-01T06:54:18;94171.72;;;13.20;71.08
8366;BME280;4220;42.502;24.188;2023-04-01T06:56:51;94185.69;;;13.42;67.45
8366;BME280;4220;42.502;24.188;2023-04-01T06:59:22;94176.69;;;13.58;66.69
8366;BME280;4220;42.502;24.188;2023-04-01T07:01:53;94186.34;;;13.80;66.48
8366;BME280;4220;42.502;24.188;2023-04-01T07:04:24;94183.41;;;13.91;65.29
8366;BME280;4220;42.502;24.188;2023-04-01T07:06:54;94167.19;;;13.93;64.27
8366;BME280;4220;42.502;24.188;2023-04-01T07:09:27;94178.63;;;14.03;63.54
8366;BME280;4220;42.502;24.188;2023-04-01T07:12:01;94175.97;;;13.93;63.99
8366;BME280;4220;42.502;24.188;2023-04-01T07:14:32;94165.56;;;13.87;64.72
8366;BME280;4220;42.502;24.188;2023-04-01T07:17:04;94168.53;;;14.00;65.05
8366;BME280;4220;42.502;24.188;2023-04-01T07:19:36;94170.91;;;14.02;64.80
8366;BME280;4220;42.502;24.188;2023-04-01T07:22:19;94131.72;;;13.92;65.52
8366;BME280;4220;42.502;24.188;2023-04-01T07:24:51;94153.34;;;14.26;64.48
8366;BME280;4220;42.502;24.188;2023-04-01T07:27:19;94156.03;;;14.41;63.27
8366;BME280;4220;42.502;24.188;2023-04-01T07:29:47;94148.03;;;14.46;62.94
8366;BME280;4220;42.502;24.188;2023-04-01T07:32:31;94150.72;;;14.41;63.40
8366;BME280;4220;42.502;24.188;2023-04-01T07:35:09;94154.19;;;14.31;64.47
8366;BME280;4220;42.502;24.188;2023-04-01T07:37:43;94158.41;;;14.22;64.66
8366;BME280;4220;42.502;24.188;2023-04-01T07:40:21;94163.19;;;14.20;65.47
8366;BME280;4220;42.502;24.188;2023-04-01T07:43:04;94152.81;;;14.19;65.56
8366;BME280;4220;42.502;24.188;2023-04-01T07:45:39;94152.84;;;14.39;64.88
8366;BME280;4220;42.502;24.188;2023-04-01T07:48:20;94147.50;;;14.49;63.97
8366;BME280;4220;42.502;24.188;2023-04-01T07:50:55;94142.19;;;14.49;63.50
8366;BME280;4220;42.502;24.188;2023-04-01T07:53:32;94145.66;;;14.45;65.66
8366;BME280;4220;42.502;24.188;2023-04-01T07:56:07;94134.94;;;14.50;65.27
8366;BME280;4220;42.502;24.188;2023-04-01T07:58:45;94135.75;;;14.40;65.11
8366;BME280;4220;42.502;24.188;2023-04-01T08:01:22;94123.47;;;14.19;67.02
8366;BME280;4220;42.502;24.188;2023-04-01T08:04:04;94114.41;;;13.95;69.19
8366;BME280;4220;42.502;24.188;2023-04-01T08:06:38;94112.22;;;13.66;71.50
8366;BME280;4220;42.502;24.188;2023-04-01T08:09:14;94103.38;;;13.41;73.85
8366;BME280;4220;42.502;24.188;2023-04-01T08:11:52;94098.03;;;13.36;75.42
8366;BME280;4220;42.502;24.188;2023-04-01T08:14:26;94098.88;;;13.41;76.15
8366;BME280;4220;42.502;24.188;2023-04-01T08:17:01;94089.75;;;13.27;77.31
8366;BME280;4220;42.502;24.188;2023-04-01T08:19:41;94063.09;;;13.17;77.64
8366;BME280;4220;42.502;24.188;2023-04-01T08:22:19;94098.88;;;13.41;77.86
8366;BME280;4220;42.502;24.188;2023-04-01T08:24:48;94093.78;;;13.40;78.30
8366;BME280;4220;42.502;24.188;2023-04-01T08:27:21;94089.25;;;13.35;79.28
8366;BME280;4220;42.502;24.188;2023-04-01T08:29:53;94092.72;;;13.41;79.14
8366;BME280;4220;42.502;24.188;2023-04-01T08:32:27;94051.44;;;13.28;78.71
8366;BME280;4220;42.502;24.188;2023-04-01T08:35:11;94090.88;;;13.56;77.37
8366;BME280;4220;42.502;24.188;2023-04-01T08:37:43;94082.66;;;13.68;76.89
8366;BME280;4220;42.502;24.188;2023-04-01T08:40:27;94090.13;;;13.86;75.73
8366;BME280;4220;42.502;24.188;2023-04-01T08:43:09;94093.34;;;13.88;75.20
8366;BME280;4220;42.502;24.188;2023-04-01T08:45:47;94090.41;;;13.80;75.49
8366;BME280;4220;42.502;24.188;2023-04-01T08:48:45;94081.88;;;13.83;75.55
8366;BME280;4220;42.502;24.188;2023-04-01T08:54:44;94079.22;;;13.98;74.39
8366;BME280;4220;42.502;24.188;2023-04-01T08:57:16;94055.22;;;13.83;74.21
8366;BME280;4220;42.502;24.188;2023-04-01T08:59:58;94060.28;;;13.84;75.42
8366;BME280;4220;42.502;24.188;2023-04-01T09:02:46;94067.75;;;14.02;74.96
8366;BME280;4220;42.502;24.188;2023-04-01T09:08:28;94054.44;;;14.17;74.11
8366;BME280;4220;42.502;24.188;2023-04-01T09:11:17;94054.66;;;14.21;73.09
8366;BME280;4220;42.502;24.188;2023-04-01T09:14:07;94052.28;;;14.19;73.45
8366;BME280;4220;42.502;24.188;2023-04-01T09:17:07;94047.19;;;14.28;72.31
8366;BME280;4220;42.502;24.188;2023-04-01T09:19:54;94058.41;;;14.40;70.98
8366;BME280;4220;42.502;24.188;2023-04-01T09:22:34;94057.03;;;14.53;70.56
8366;BME280;4220;42.502;24.188;2023-04-01T09:25:26;94048.28;;;14.47;69.85
8366;BME280;4220;42.502;24.188;2023-04-01T09:27:57;93939.56;;;13.73;70.54
8366;BME280;4220;42.502;24.188;2023-04-01T09:30:56;94030.41;;;14.32;70.44
8366;BME280;4220;42.502;24.188;2023-04-01T09:33:56;94011.47;;;14.44;70.55
8366;BME280;4220;42.502;24.188;2023-04-01T09:36:43;94005.28;;;14.64;69.33
8366;BME280;4220;42.502;24.188;2023-04-01T09:39:26;94012.97;;;14.75;69.24
8366;BME280;4220;42.502;24.188;2023-04-01T09:42:07;94020.09;;;14.90;67.61
8366;BME280;4220;42.502;24.188;2023-04-01T09:44:45;94001.41;;;14.90;67.28
8366;BME280;4220;42.502;24.188;2023-04-01T09:47:27;94005.84;;;15.10;66.57
8366;BME280;4220;42.502;24.188;2023-04-01T09:50:14;94001.72;;;15.32;65.16
8366;BME280;4220;42.502;24.188;2023-04-01T09:52:49;93943.94;;;15.07;64.33
8366;BME280;4220;42.502;24.188;2023-04-01T09:55:55;93980.06;;;15.34;64.03
8366;BME280;4220;42.502;24.188;2023-04-01T09:58:43;93991.00;;;15.37;63.44
8366;BME280;4220;42.502;24.188;2023-04-01T10:10:47;93954.78;;;15.94;59.93
8366;BME280;4220;42.502;24.188;2023-04-01T10:13:49;93950.69;;;16.01;60.07
8366;BME280;4220;42.502;24.188;2023-04-01T10:19:58;93938.84;;;16.60;56.71
8366;BME280;4220;42.502;24.188;2023-04-01T10:22:51;93936.31;;;16.68;56.79
8366;BME280;4220;42.502;24.188;2023-04-01T10:25:34;93930.06;;;16.96;55.77
8366;BME280;4220;42.502;24.188;2023-04-01T10:28:29;93924.72;;;17.34;54.06
8366;BME280;4220;42.502;24.188;2023-04-01T10:31:31;93927.66;;;17.51;54.36
8366;BME280;4220;42.502;24.188;2023-04-01T10:37:40;93932.59;;;17.25;53.94
8366;BME280;4220;42.502;24.188;2023-04-01T10:40:38;93929.28;;;17.33;52.61
8366;BME280;4220;42.502;24.188;2023-04-01T10:43:46;93924.34;;;17.40;53.34
8366;BME280;4220;42.502;24.188;2023-04-01T10:46:37;93916.03;;;17.23;54.07
8366;BME280;4220;42.502;24.188;2023-04-01T10:49:41;93906.69;;;17.21;53.80
8366;BME280;4220;42.502;24.188;2023-04-01T10:52:24;93901.19;;;16.75;55.67
8366;BME280;4220;42.502;24.188;2023-04-01T10:55:14;93898.56;;;16.70;56.32
8366;BME280;4220;42.502;24.188;2023-04-01T11:01:07;93867.97;;;16.33;56.88
8366;BME280;4220;42.502;24.188;2023-04-01T11:04:08;93835.84;;;16.33;56.45
8366;BME280;4220;42.502;24.188;2023-04-01T11:10:33;93879.34;;;17.05;54.87
8366;BME280;4220;42.502;24.188;2023-04-01T11:16:38;93869.19;;;16.65;56.03
8366;BME280;4220;42.502;24.188;2023-04-01T11:19:35;93860.09;;;16.42;56.34
8366;BME280;4220;42.502;24.188;2023-04-01T11:22:24;93851.31;;;16.36;56.57
8366;BME280;4220;42.502;24.188;2023-04-01T11:25:20;93847.75;;;16.46;56.16
8366;BME280;4220;42.502;24.188;2023-04-01T11:28:16;93847.56;;;16.38;56.98
8366;BME280;4220;42.502;24.188;2023-04-01T11:31:00;93806.63;;;16.18;56.72
8366;BME280;4220;42.502;24.188;2023-04-01T11:33:36;93838.59;;;16.28;57.11
8366;BME280;4220;42.502;24.188;2023-04-01T11:36:32;93847.00;;;16.17;56.99
8366;BME280;4220;42.502;24.188;2023-04-01T11:39:11;93839.56;;;16.14;57.13
8366;BME280;4220;42.502;24.188;2023-04-01T11:41:45;93839.41;;;16.05;56.89
8366;BME280;4220;42.502;24.188;2023-04-01T11:44:18;93837.03;;;16.04;57.23
8366;BME280;4220;42.502;24.188;2023-04-01T11:47:02;93836.31;;;16.17;56.83
8366;BME280;4220;42.502;24.188;2023-04-01T11:49:50;93800.88;;;15.83;56.49
8366;BME280;4220;42.502;24.188;2023-04-01T11:52:35;93831.44;;;16.00;57.01
8366;BME280;4220;42.502;24.188;2023-04-01T11:55:23;93828.53;;;15.97;56.92
8366;BME280;4220;42.502;24.188;2023-04-01T12:00:53;93772.28;;;15.31;58.19
8366;BME280;4220;42.502;24.188;2023-04-01T12:03:51;93814.81;;;15.56;57.81
8366;BME280;4220;42.502;24.188;2023-04-01T12:06:30;93808.50;;;15.47;58.30
8366;BME280;4220;42.502;24.188;2023-04-01T12:09:10;93813.19;;;15.26;58.56
8366;BME280;4220;42.502;24.188;2023-04-01T12:11:46;93801.84;;;15.11;59.69
8366;BME280;4220;42.502;24.188;2023-04-01T12:14:21;93799.91;;;15.16;60.12
8366;BME280;4220;42.502;24.188;2023-04-01T12:16:57;93796.25;;;15.07;60.66
8366;BME280;4220;42.502;24.188;2023-04-01T12:19:32;93795.53;;;14.96;61.39
8366;BME280;4220;42.502;24.188;2023-04-01T12:22:19;93793.03;;;14.81;62.09
8366;BME280;4220;42.502;24.188;2023-04-01T12:24:55;93793.31;;;14.75;61.78
8366;BME280;4220;42.502;24.188;2023-04-01T12:27:47;93777.63;;;14.68;61.88
8366;BME280;4220;42.502;24.188;2023-04-01T12:30:32;93782.34;;;14.81;61.31
8366;BME280;4220;42.502;24.188;2023-04-01T12:33:32;93769.44;;;14.93;60.28
8366;BME280;4220;42.502;24.188;2023-04-01T12:36:11;93766.72;;;14.98;60.58
8366;BME280;4220;42.502;24.188;2023-04-01T12:38:56;93769.56;;;14.78;61.27
8366;BME280;4220;42.502;24.188;2023-04-01T12:41:32;93785.94;;;14.67;61.98
8366;BME280;4220;42.502;24.188;2023-04-01T12:44:23;93810.31;;;14.45;63.46
8366;BME280;4220;42.502;24.188;2023-04-01T12:50:02;93927.78;;;14.15;68.68
8366;BME280;4220;42.502;24.188;2023-04-01T12:52:49;93970.72;;;13.98;68.74
8366;BME280;4220;42.502;24.188;2023-04-01T12:55:33;94024.38;;;12.84;100.00
8366;BME280;4220;42.502;24.188;2023-04-01T12:58:29;94018.63;;;11.67;100.00
8366;BME280;4220;42.502;24.188;2023-04-01T13:04:17;94023.91;;;10.82;100.00
8366;BME280;4220;42.502;24.188;2023-04-01T13:06:57;94022.50;;;10.74;100.00
8366;BME280;4220;42.502;24.188;2023-04-01T13:09:36;94028.97;;;10.62;100.00
8366;BME280;4220;42.502;24.188;2023-04-01T13:12:20;94011.91;;;10.52;100.00
8366;BME280;4220;42.502;24.188;2023-04-01T13:15:07;94026.16;;;10.46;100.00
8366;BME280;4220;42.502;24.188;2023-04-01T13:17:42;93994.44;;;10.35;100.00
8366;BME280;4220;42.502;24.188;2023-04-01T13:20:16;94011.78;;;10.42;100.00
8366;BME280;4220;42.502;24.188;2023-04-01T13:22:56;94008.22;;;10.54;100.00
8366;BME280;4220;42.502;24.188;2023-04-01T13:25:31;94021.53;;;10.59;100.00
8366;BME280;4220;42.502;24.188;2023-04-01T13:28:10;94002.72;;;10.60;100.00
8366;BME280;4220;42.502;24.188;2023-04-01T13:30:42;94007.34;;;10.70;100.00
8366;BME280;4220;42.502;24.188;2023-04-01T13:33:17;94015.09;;;10.76;100.00
8366;BME280;4220;42.502;24.188;2023-04-01T13:35:50;93996.53;;;10.76;100.00
8366;BME280;4220;42.502;24.188;2023-04-01T13:38:38;93998.13;;;10.77;100.00
8366;BME280;4220;42.502;24.188;2023-04-01T13:41:18;93995.06;;;10.85;100.00
8366;BME280;4220;42.502;24.188;2023-04-01T13:43:52;93981.63;;;10.97;100.00
8366;BME280;4220;42.502;24.188;2023-04-01T13:49:45;93951.81;;;11.48;100.00
8366;BME280;4220;42.502;24.188;2023-04-01T13:52:33;93947.06;;;12.39;100.00
8366;BME280;4220;42.502;24.188;2023-04-01T13:55:30;93945.97;;;13.67;100.00
8366;BME280;4220;42.502;24.188;2023-04-01T14:01:15;93932.25;;;16.52;100.00
8366;BME280;4220;42.502;24.188;2023-04-01T14:04:08;93931.75;;;16.69;100.00
8366;BME280;4220;42.502;24.188;2023-04-01T14:06:46;93939.41;;;16.57;100.00
8366;BME280;4220;42.502;24.188;2023-04-01T14:12:17;94010.44;;;14.05;100.00
8366;BME280;4220;42.502;24.188;2023-04-01T14:15:03;93989.09;;;13.14;100.00
8366;BME280;4220;42.502;24.188;2023-04-01T14:17:46;93891.97;;;12.24;100.00
8366;BME280;4220;42.502;24.188;2023-04-01T14:20:26;93857.56;;;13.00;100.00
8366;BME280;4220;42.502;24.188;2023-04-01T14:23:13;93871.13;;;13.64;100.00
8366;BME280;4220;42.502;24.188;2023-04-01T14:26:02;93861.84;;;14.25;100.00
8366;BME280;4220;42.502;24.188;2023-04-01T14:28:38;93843.75;;;14.76;100.00
8366;BME280;4220;42.502;24.188;2023-04-01T14:31:33;93840.25;;;15.77;100.00
8366;BME280;4220;42.502;24.188;2023-04-01T14:34:15;93833.25;;;16.28;100.00
8366;BME280;4220;42.502;24.188;2023-04-01T14:37:03;93799.69;;;15.94;100.00
8366;BME280;4220;42.502;24.188;2023-04-01T14:39:55;93822.72;;;16.13;100.00
8366;BME280;4220;42.502;24.188;2023-04-01T14:42:58;93815.56;;;16.09;100.00
8366;BME280;4220;42.502;24.188;2023-04-01T14:46:05;93811.63;;;16.01;100.00
8366;BME280;4220;42.502;24.188;2023-04-01T14:48:37;93778.59;;;15.45;100.00
8366;BME280;4220;42.502;24.188;2023-04-01T14:51:15;93825.97;;;15.29;100.00
8366;BME280;4220;42.502;24.188;2023-04-01T14:53:45;93833.00;;;15.20;100.00
8366;BME280;4220;42.502;24.188;2023-04-01T14:56:35;93833.41;;;15.90;100.00
8366;BME280;4220;42.502;24.188;2023-04-01T14:59:08;93838.91;;;16.46;100.00
8366;BME280;4220;42.502;24.188;2023-04-01T15:01:42;93845.22;;;16.55;100.00